createdAt,value
2022-10-04T00:09:07.894Z,97.5
2022-10-04T00:29:07.882Z,98.2
2022-10-04T00:49:07.880Z,98.3
2022-10-04T01:09:07.851Z,94.3
2022-10-04T01:29:07.833Z,98.7
2022-10-04T01:49:07.822Z,96.1
2022-10-04T02:09:07.812Z,98.2
2022-10-04T02:29:07.790Z,97.3
2022-10-04T02:49:07.775Z,97.9
2022-10-04T03:09:07.755Z,96.4
2022-10-04T03:29:07.744Z,97.1
2022-10-04T03:49:07.729Z,97.9
2022-10-04T04:09:07.715Z,98.9
2022-10-04T04:29:07.703Z,97.1
2022-10-04T04:49:07.679Z,98.0
2022-10-04T05:09:07.670Z,96.5
2022-10-04T05:29:07.660Z,98.3
2022-10-04T05:49:07.627Z,99.3
2022-10-04T06:09:07.627Z,99.7
2022-10-04T06:29:07.620Z,99.4
2022-10-04T06:49:07.606Z,100.0
2022-10-04T07:09:07.588Z,100.0
2022-10-04T07:29:07.809Z,100.0
2022-10-04T07:49:07.526Z,100.0
2022-10-04T08:09:07.535Z,100.0
2022-10-04T08:29:07.535Z,100.0
2022-10-04T08:49:07.493Z,100.0
2022-10-04T09:09:07.478Z,100.0
2022-10-04T09:29:07.505Z,100.0
2022-10-04T09:49:07.425Z,98.1
2022-10-04T10:09:07.382Z,94.6
2022-10-04T10:29:07.356Z,95.6
2022-10-04T10:49:07.343Z,95.6
2022-10-04T11:09:07.334Z,94.4
2022-10-04T11:29:07.301Z,94.3
2022-10-04T11:49:07.288Z,93.6
2022-10-04T12:09:07.279Z,89.7
2022-10-04T12:29:07.225Z,89.9
2022-10-04T12:49:07.253Z,89.0
2022-10-04T13:09:07.238Z,89.2
2022-10-04T13:29:07.207Z,88.5
2022-10-04T13:49:07.129Z,88.1
2022-10-04T14:09:07.104Z,86.9
2022-10-04T14:29:07.064Z,87.1
2022-10-04T14:49:07.081Z,86.7
2022-10-04T15:09:07.020Z,87.8
2022-10-04T15:29:06.991Z,86.3
2022-10-04T15:49:07.009Z,88.5
2022-10-04T16:09:06.944Z,89.6
2022-10-04T16:29:06.931Z,89.7
2022-10-04T16:49:06.953Z,91.7
2022-10-04T17:09:06.864Z,93.8
2022-10-04T17:29:06.863Z,91.6
2022-10-04T17:49:06.829Z,91.4
2022-10-04T18:09:06.808Z,93.7
2022-10-04T18:29:06.820Z,94.0
2022-10-04T18:49:06.776Z,95.1
2022-10-04T19:09:06.731Z,91.5
2022-10-04T19:29:06.717Z,94.5
2022-10-04T19:49:06.742Z,97.0
2022-10-04T20:09:06.659Z,94.1
2022-10-04T20:29:06.637Z,92.4
2022-10-04T20:49:06.615Z,92.0
2022-10-04T21:09:06.606Z,94.3
2022-10-04T21:29:06.588Z,94.9
2022-10-04T21:49:06.551Z,96.5
2022-10-04T22:09:06.537Z,94.8
2022-10-04T22:29:06.505Z,96.3
2022-10-04T22:49:06.492Z,94.5
2022-10-04T23:09:06.473Z,94.8
2022-10-04T23:29:06.445Z,97.4
2022-10-04T23:49:06.443Z,95.9
